Time;durP1;ratioP1;P1;durP2;ratioP2;P2;SDS_P1;SDS_P2;PMS_P1;PMS_P2;Temp;Humidity;BMP_temperature;BMP_pressure;BME280_temperature;BME280_humidity;BME280_pressure;Samples;Min_cycle;Max_cycle;Signal;HPM_P1;HPM_P2
2023/03/08 00:00:21;;;;;;;2.27;2.17;;;16.50;60.80;;;;;;4972133;28;43518;-77
2023/03/08 00:02:52;;;;;;;2.00;2.00;;;16.50;61.00;;;;;;4989153;28;43955;-77
2023/03/08 00:05:20;;;;;;;2.40;2.40;;;16.60;61.60;;;;;;4967706;28;45007;-79
2023/03/08 00:07:48;;;;;;;2.30;2.30;;;16.60;60.40;;;;;;4988953;28;43381;-77
2023/03/08 00:10:17;;;;;;;2.10;2.10;;;16.70;60.40;;;;;;4971949;28;43517;-77
2023/03/08 00:12:44;;;;;;;2.00;2.00;;;16.70;60.50;;;;;;4988301;28;43914;-76
2023/03/08 00:15:12;;;;;;;2.17;2.17;;;16.70;60.60;;;;;;4987889;28;43458;-77
2023/03/08 00:17:40;;;;;;;2.10;2.10;;;16.60;60.70;;;;;;4984468;28;43890;-79
2023/03/08 00:20:12;;;;;;;2.03;2.03;;;16.60;60.60;;;;;;4971930;28;44102;-78
2023/03/08 00:22:40;;;;;;;2.10;2.10;;;16.60;60.60;;;;;;4988835;28;43742;-77
2023/03/08 00:25:09;;;;;;;2.10;2.10;;;16.60;60.70;;;;;;4970571;28;44641;-78
2023/03/08 00:27:37;;;;;;;2.30;2.30;;;16.60;60.70;;;;;;4970989;28;43407;-78
2023/03/08 00:30:05;;;;;;;2.00;2.00;;;16.60;60.80;;;;;;4969492;28;44045;-77
2023/03/08 00:32:33;;;;;;;2.10;2.10;;;16.50;60.80;;;;;;4988511;28;43612;-78
2023/03/08 00:35:04;;;;;;;2.00;2.00;;;16.50;61.00;;;;;;4970973;28;44649;-77
2023/03/08 00:37:34;;;;;;;2.30;2.30;;;16.60;60.90;;;;;;4971005;28;43395;-76
2023/03/08 00:40:02;;;;;;;2.00;2.00;;;16.70;60.60;;;;;;4969479;28;43591;-79
2023/03/08 00:42:30;;;;;;;2.20;2.20;;;16.70;60.40;;;;;;4988113;28;43868;-76
2023/03/08 00:44:58;;;;;;;2.23;2.23;;;16.70;60.40;;;;;;4970892;28;45003;-79
2023/03/08 00:47:28;;;;;;;2.10;2.10;;;16.60;60.40;;;;;;4988753;28;43401;-77
2023/03/08 00:49:56;;;;;;;2.27;2.27;;;16.70;60.60;;;;;;4988359;28;43472;-75
2023/03/08 00:52:24;;;;;;;2.10;2.10;;;16.60;60.60;;;;;;4987973;28;43923;-79
2023/03/08 00:54:53;;;;;;;2.00;2.00;;;16.60;60.60;;;;;;4988560;28;43415;-77
2023/03/08 00:57:21;;;;;;;2.10;2.10;;;16.60;60.60;;;;;;4970973;28;43445;-77
2023/03/08 00:59:49;;;;;;;2.00;2.00;;;16.60;60.70;;;;;;4970939;28;43621;-76
2023/03/08 01:02:17;;;;;;;2.00;2.00;;;16.60;60.80;;;;;;4970394;28;44348;-78
2023/03/08 01:04:45;;;;;;;2.10;2.10;;;16.60;60.90;;;;;;4970542;28;45438;-77
2023/03/08 01:07:13;;;;;;;2.13;2.13;;;16.60;61.00;;;;;;4970841;28;43429;-74
2023/03/08 01:09:41;;;;;;;2.10;2.10;;;16.60;60.90;;;;;;4990030;28;43352;-79
2023/03/08 01:12:11;;;;;;;2.03;2.03;;;16.70;60.60;;;;;;4987323;28;43751;-77
2023/03/08 01:14:39;;;;;;;2.37;2.37;;;16.80;60.40;;;;;;4969586;28;44711;-78
2023/03/08 01:17:07;;;;;;;2.30;2.30;;;16.70;60.20;;;;;;4967148;28;43414;-77
2023/03/08 01:19:35;;;;;;;2.40;2.40;;;16.70;60.30;;;;;;4969974;28;43946;-79
2023/03/08 01:22:07;;;;;;;2.27;2.27;;;16.70;60.40;;;;;;4970218;28;45994;-79
2023/03/08 01:24:35;;;;;;;1.97;1.97;;;16.70;60.60;;;;;;4969526;28;44816;-79
2023/03/08 01:27:03;;;;;;;1.90;1.90;;;16.60;60.40;;;;;;4987659;28;43386;-77
2023/03/08 01:29:32;;;;;;;2.50;2.50;;;16.60;60.50;;;;;;4970365;28;43613;-78
2023/03/08 01:32:03;;;;;;;2.00;2.00;;;16.60;60.60;;;;;;4970183;28;45835;-79
2023/03/08 01:34:32;;;;;;;2.27;2.27;;;16.60;61.40;;;;;;4969425;28;44832;-78
2023/03/08 01:37:00;;;;;;;2.17;2.17;;;16.60;60.80;;;;;;4981428;28;43812;-79
2023/03/08 01:39:28;;;;;;;2.20;2.20;;;16.50;60.80;;;;;;4981703;28;43465;-78
2023/03/08 01:41:56;;;;;;;2.33;2.33;;;16.60;60.80;;;;;;4984662;28;43865;-76
2023/03/08 01:44:24;;;;;;;2.30;2.30;;;16.60;60.80;;;;;;4981313;28;43400;-76
2023/03/08 01:46:55;;;;;;;2.53;2.53;;;16.60;60.90;;;;;;4968433;28;43413;-77
2023/03/08 01:49:27;;;;;;;2.30;2.30;;;16.50;60.80;;;;;;4965132;28;44006;-77
2023/03/08 01:52:00;;;;;;;2.50;2.50;;;16.50;60.80;;;;;;4969363;28;45429;-78
2023/03/08 01:54:29;;;;;;;2.10;2.10;;;16.50;60.90;;;;;;4982532;28;43470;-77
2023/03/08 01:56:59;;;;;;;2.10;2.10;;;16.50;61.70;;;;;;4987054;28;43418;-77
2023/03/08 01:59:27;;;;;;;2.13;2.13;;;16.60;60.90;;;;;;4970853;28;44481;-77
2023/03/08 02:01:56;;;;;;;2.30;2.30;;;16.70;60.60;;;;;;4986883;28;43569;-73
2023/03/08 02:04:28;;;;;;;2.40;2.40;;;16.70;60.30;;;;;;4969296;28;44601;-77
2023/03/08 02:06:56;;;;;;;2.00;2.00;;;16.70;60.20;;;;;;4969523;28;43463;-74
2023/03/08 02:09:25;;;;;;;1.90;1.90;;;16.70;60.30;;;;;;4972818;28;43449;-78
2023/03/08 02:11:53;;;;;;;2.20;2.20;;;16.70;60.50;;;;;;4972891;28;45425;-79
2023/03/08 02:14:21;;;;;;;2.20;2.20;;;16.70;60.50;;;;;;4969297;28;45185;-79
2023/03/08 02:16:51;;;;;;;2.20;2.20;;;16.70;60.50;;;;;;4968869;28;43918;-77
2023/03/08 02:19:23;;;;;;;2.20;2.20;;;16.70;60.60;;;;;;4968971;28;44032;-78
2023/03/08 02:21:51;;;;;;;2.30;2.30;;;16.60;60.60;;;;;;4971849;28;44994;-79
2023/03/08 02:24:21;;;;;;;2.43;2.43;;;16.60;60.70;;;;;;4969357;28;45136;-78
2023/03/08 02:26:49;;;;;;;2.40;2.40;;;16.60;60.80;;;;;;4986864;28;43438;-79
2023/03/08 02:29:17;;;;;;;2.50;2.50;;;16.50;60.80;;;;;;4968419;28;43561;-77
2023/03/08 02:31:45;;;;;;;2.07;2.07;;;16.50;60.70;;;;;;4986781;28;43601;-79
2023/03/08 02:34:13;;;;;;;2.20;2.20;;;16.60;60.80;;;;;;4969201;28;45254;-76
2023/03/08 02:36:41;;;;;;;2.10;2.10;;;16.50;60.80;;;;;;4986873;28;43433;-78
2023/03/08 02:39:09;;;;;;;2.33;2.23;;;16.50;60.80;;;;;;4987520;28;43438;-79
2023/03/08 02:41:38;;;;;;;2.30;2.30;;;16.50;60.80;;;;;;4985982;28;43939;-79
2023/03/08 02:44:06;;;;;;;2.20;2.20;;;16.50;61.00;;;;;;4986563;28;43450;-78
2023/03/08 02:46:35;;;;;;;2.33;2.33;;;16.50;61.10;;;;;;4986537;28;43761;-78
2023/03/08 02:49:03;;;;;;;2.10;2.10;;;16.60;60.80;;;;;;4986873;28;43493;-80
2023/03/08 02:51:31;;;;;;;2.10;2.10;;;16.70;60.40;;;;;;4986526;28;43608;-76
2023/03/08 02:53:59;;;;;;;2.13;2.13;;;16.70;60.20;;;;;;4968422;28;44766;-78
2023/03/08 02:56:27;;;;;;;2.40;2.30;;;16.70;60.30;;;;;;4968179;28;43434;-78
2023/03/08 02:58:57;;;;;;;2.20;2.20;;;16.70;60.40;;;;;;4969506;28;43667;-74
2023/03/08 03:01:25;;;;;;;2.20;2.20;;;16.70;60.60;;;;;;4986390;28;43633;-78
2023/03/08 03:03:56;;;;;;;2.20;2.20;;;16.70;60.60;;;;;;4968419;28;44681;-77
2023/03/08 03:06:24;;;;;;;2.27;2.27;;;16.60;60.40;;;;;;4986916;28;43438;-76
2023/03/08 03:08:55;;;;;;;2.07;2.07;;;16.60;60.50;;;;;;4969259;28;43557;-71
2023/03/08 03:11:24;;;;;;;2.20;2.20;;;16.60;60.60;;;;;;4974921;28;45633;-79
2023/03/08 03:13:58;;;;;;;2.33;2.33;;;16.60;60.70;;;;;;4968450;28;44775;-77
2023/03/08 03:16:31;;;;;;;2.30;2.30;;;16.60;60.90;;;;;;4974307;28;43369;-77
2023/03/08 03:18:59;;;;;;;2.50;2.50;;;16.50;60.80;;;;;;4965009;28;43604;-79
2023/03/08 03:21:27;;;;;;;2.20;2.20;;;16.60;60.80;;;;;;4959652;28;43843;-75
2023/03/08 03:23:55;;;;;;;2.10;2.10;;;16.50;60.70;;;;;;4968623;28;44730;-77
2023/03/08 03:26:30;;;;;;;2.13;2.13;;;16.50;60.70;;;;;;4968369;28;43857;-78
2023/03/08 03:29:00;;;;;;;2.17;2.17;;;16.50;60.80;;;;;;4986559;28;43924;-78
2023/03/08 03:31:33;;;;;;;2.00;2.00;;;16.50;60.90;;;;;;4968307;28;46236;-78
2023/03/08 03:34:01;;;;;;;2.23;2.23;;;16.50;61.00;;;;;;4966532;28;45130;-76
2023/03/08 03:36:29;;;;;;;2.20;2.20;;;16.50;60.80;;;;;;4984246;28;43372;-78
2023/03/08 03:38:59;;;;;;;2.40;2.40;;;16.50;60.80;;;;;;4968830;28;44156;-76
2023/03/08 03:41:28;;;;;;;2.40;2.40;;;16.50;60.80;;;;;;4972565;28;43902;-79
2023/03/08 03:44:06;;;;;;;2.40;2.40;;;16.50;60.80;;;;;;4971991;28;43330;-78
2023/03/08 03:46:35;;;;;;;2.23;2.23;;;16.50;60.90;;;;;;4971641;28;43475;-77
2023/03/08 03:49:05;;;;;;;2.00;2.00;;;16.50;61.00;;;;;;4971943;28;43397;-77
2023/03/08 03:51:38;;;;;;;2.27;2.27;;;16.50;61.10;;;;;;4971014;28;45982;-75
2023/03/08 03:54:23;;;;;;;2.07;2.07;;;16.50;60.90;;;;;;4984022;28;43420;-78
2023/03/08 03:56:52;;;;;;;2.40;2.40;;;16.60;61.30;;;;;;4971799;28;43649;-76
2023/03/08 03:59:24;;;;;;;2.23;2.23;;;16.80;60.20;;;;;;4971466;28;43426;-78
2023/03/08 04:01:54;;;;;;;2.13;2.13;;;16.80;60.00;;;;;;4971624;28;45265;-78
2023/03/08 04:04:27;;;;;;;2.20;2.20;;;16.80;60.10;;;;;;4971097;28;43403;-77
2023/03/08 04:06:55;;;;;;;2.10;2.10;;;16.70;60.20;;;;;;4971273;28;43507;-73
2023/03/08 04:09:27;;;;;;;2.40;2.40;;;16.70;60.30;;;;;;4975337;28;43469;-80
2023/03/08 04:12:08;;;;;;;2.20;2.20;;;16.70;60.30;;;;;;4969294;28;45378;-77
2023/03/08 04:14:39;;;;;;;2.20;2.20;;;16.70;60.40;;;;;;4970496;28;44471;-78
2023/03/08 04:17:09;;;;;;;2.20;2.20;;;16.60;60.40;;;;;;4968620;28;43458;-77
2023/03/08 04:19:42;;;;;;;2.10;2.10;;;16.60;60.60;;;;;;4971834;28;43539;-79
2023/03/08 04:22:12;;;;;;;2.30;2.30;;;16.60;60.70;;;;;;4967870;28;45730;-79
2023/03/08 04:25:04;;;;;;;2.30;2.30;;;16.50;60.80;;;;;;4981785;28;44026;-77
2023/03/08 04:27:39;;;;;;;2.20;2.20;;;16.50;60.70;;;;;;4971310;28;44461;-76
2023/03/08 04:30:10;;;;;;;2.20;2.20;;;16.50;60.80;;;;;;4971578;28;43987;-77
2023/03/08 04:32:38;;;;;;;2.20;2.20;;;16.50;60.80;;;;;;4988548;28;43958;-78
2023/03/08 04:35:08;;;;;;;2.37;2.37;;;16.50;60.80;;;;;;4969168;28;43791;-78
2023/03/08 04:37:39;;;;;;;2.50;2.50;;;16.50;60.90;;;;;;4970927;28;43358;-77
2023/03/08 04:40:13;;;;;;;2.20;2.20;;;16.50;61.00;;;;;;4989279;28;43463;-78
2023/03/08 04:42:53;;;;;;;2.13;2.13;;;16.50;61.10;;;;;;4965816;28;46001;-77
2023/03/08 04:45:27;;;;;;;2.00;2.00;;;16.50;60.80;;;;;;4970567;28;44459;-75
2023/03/08 04:47:58;;;;;;;2.40;2.40;;;16.60;60.50;;;;;;4970909;28;43414;-76
2023/03/08 04:50:28;;;;;;;2.27;2.27;;;16.60;60.60;;;;;;4971268;28;43483;-76
2023/03/08 04:52:57;;;;;;;2.13;2.13;;;16.60;61.20;;;;;;4969746;28;44028;-78
2023/03/08 04:55:26;;;;;;;2.43;2.43;;;16.60;60.60;;;;;;4972336;28;43518;-73
2023/03/08 04:57:54;;;;;;;2.30;2.30;;;16.60;60.80;;;;;;4971001;28;43989;-78
2023/03/08 05:00:23;;;;;;;2.20;2.10;;;16.60;60.60;;;;;;4970966;28;43562;-77
2023/03/08 05:02:52;;;;;;;2.40;2.27;;;16.60;60.60;;;;;;4970442;28;47087;-78
2023/03/08 05:05:23;;;;;;;2.20;2.20;;;16.60;60.70;;;;;;4970716;28;43465;-78
2023/03/08 05:07:53;;;;;;;2.37;2.37;;;16.60;60.70;;;;;;4964855;28;43500;-79
2023/03/08 05:10:21;;;;;;;2.20;2.20;;;16.60;60.70;;;;;;4972838;28;43582;-77
2023/03/08 05:12:50;;;;;;;2.43;2.43;;;16.60;60.80;;;;;;4970342;28;44626;-78
2023/03/08 05:15:18;;;;;;;2.27;2.27;;;16.50;60.80;;;;;;4970585;28;44850;-78
2023/03/08 05:17:46;;;;;;;2.30;2.30;;;16.60;60.80;;;;;;4983940;28;43450;-77
2023/03/08 05:20:16;;;;;;;2.17;2.17;;;16.70;60.50;;;;;;4970832;28;43506;-78
2023/03/08 05:22:44;;;;;;;2.07;2.07;;;16.70;60.20;;;;;;4970324;28;45834;-78
2023/03/08 05:25:32;;;;;;;2.13;2.13;;;16.70;60.10;;;;;;4970183;28;43500;-75
2023/03/08 05:28:01;;;;;;;2.20;2.20;;;16.70;60.20;;;;;;4964686;28;43459;-79
2023/03/08 05:30:29;;;;;;;2.23;2.23;;;16.70;60.30;;;;;;4964722;28;43638;-79
2023/03/08 05:32:57;;;;;;;2.30;2.30;;;16.60;60.50;;;;;;4968765;28;43783;-78
2023/03/08 05:35:27;;;;;;;2.43;2.43;;;16.70;60.40;;;;;;4970503;28;44793;-73
2023/03/08 05:37:56;;;;;;;2.40;2.37;;;16.60;60.40;;;;;;4970190;28;43379;-71
2023/03/08 05:40:25;;;;;;;2.77;2.77;;;16.60;60.50;;;;;;4970508;28;43536;-78
2023/03/08 05:42:54;;;;;;;2.30;2.30;;;16.60;60.60;;;;;;4969913;28;45761;-78
2023/03/08 05:45:25;;;;;;;2.40;2.40;;;16.60;60.60;;;;;;4970102;28;45910;-79
2023/03/08 05:47:54;;;;;;;2.37;2.37;;;16.50;60.70;;;;;;4972746;28;43439;-78
2023/03/08 05:50:23;;;;;;;2.40;2.40;;;16.60;60.90;;;;;;4970332;28;43516;-77
2023/03/08 05:52:54;;;;;;;2.20;2.20;;;16.60;60.60;;;;;;4967488;28;45729;-79
2023/03/08 05:55:26;;;;;;;2.30;2.30;;;16.70;60.30;;;;;;4971728;28;44862;-77
2023/03/08 05:57:56;;;;;;;2.03;2.03;;;16.70;60.30;;;;;;4975660;28;43388;-75
2023/03/08 06:00:25;;;;;;;2.30;2.30;;;16.60;60.30;;;;;;4970601;28;43604;-78
2023/03/08 06:02:58;;;;;;;2.37;2.37;;;16.60;60.40;;;;;;4969138;28;45637;-73
2023/03/08 06:05:26;;;;;;;2.20;2.20;;;16.60;60.60;;;;;;4971821;28;43432;-77
2023/03/08 06:07:58;;;;;;;2.47;2.47;;;16.60;60.50;;;;;;4968449;28;43440;-77
2023/03/08 06:10:26;;;;;;;2.20;2.20;;;16.60;60.60;;;;;;4974762;28;43502;-75
2023/03/08 06:12:55;;;;;;;2.40;2.40;;;16.60;60.60;;;;;;4969480;28;44168;-79
2023/03/08 06:15:24;;;;;;;2.60;2.60;;;16.50;60.60;;;;;;4969696;28;43498;-78
2023/03/08 06:17:53;;;;;;;2.40;2.40;;;16.50;60.70;;;;;;4965581;28;43382;-78
2023/03/08 06:20:28;;;;;;;2.33;2.33;;;16.50;60.80;;;;;;4970507;28;43530;-78
2023/03/08 06:22:57;;;;;;;2.30;2.30;;;16.50;61.00;;;;;;4969166;28;46023;-78
2023/03/08 06:25:26;;;;;;;2.20;2.20;;;16.60;60.90;;;;;;4986723;28;43459;-75
2023/03/08 06:27:54;;;;;;;2.30;2.30;;;16.60;60.50;;;;;;4971625;28;43377;-77
2023/03/08 06:30:28;;;;;;;2.47;2.40;;;16.60;60.30;;;;;;4969639;28;43429;-77
2023/03/08 06:32:57;;;;;;;2.33;2.33;;;16.60;60.50;;;;;;4969050;28;43964;-78
2023/03/08 06:35:25;;;;;;;2.43;2.43;;;16.60;60.60;;;;;;4986835;28;44118;-74
2023/03/08 06:37:59;;;;;;;2.20;2.20;;;16.50;60.60;;;;;;4969156;28;43417;-77
2023/03/08 06:40:27;;;;;;;2.13;2.13;;;16.60;60.60;;;;;;4987538;28;44452;-77
2023/03/08 06:42:55;;;;;;;1.90;1.90;;;16.50;60.40;;;;;;4986482;28;43947;-79
2023/03/08 06:45:23;;;;;;;2.87;2.77;;;16.60;60.70;;;;;;4968855;28;44748;-76
2023/03/08 06:47:51;;;;;;;2.30;2.30;;;16.60;60.70;;;;;;4968661;28;43485;-77
2023/03/08 06:50:20;;;;;;;2.50;2.50;;;16.50;60.70;;;;;;4964381;28;43948;-77
2023/03/08 06:52:50;;;;;;;2.30;2.30;;;16.50;60.80;;;;;;4968230;28;45638;-79
2023/03/08 06:55:27;;;;;;;2.40;2.40;;;16.50;60.90;;;;;;4969411;28;43459;-73
2023/03/08 06:57:57;;;;;;;2.23;2.23;;;16.60;60.90;;;;;;4986758;28;43482;-78
2023/03/08 07:00:25;;;;;;;2.60;2.60;;;16.70;60.60;;;;;;4986754;28;43521;-80
2023/03/08 07:02:54;;;;;;;2.30;2.30;;;16.80;60.20;;;;;;4968773;28;45631;-77
2023/03/08 07:05:22;;;;;;;2.60;2.60;;;16.80;60.10;;;;;;4969463;28;43434;-76
2023/03/08 07:07:50;;;;;;;2.10;2.10;;;16.70;60.00;;;;;;4969316;28;43465;-76
2023/03/08 07:10:19;;;;;;;2.60;2.57;;;16.70;60.10;;;;;;4976133;28;43434;-78
2023/03/08 07:12:50;;;;;;;2.30;2.30;;;16.70;60.40;;;;;;4968016;28;45502;-79
2023/03/08 07:15:19;;;;;;;2.60;2.60;;;16.70;60.30;;;;;;4969673;28;44480;-78
2023/03/08 07:17:48;;;;;;;2.43;2.43;;;16.70;60.40;;;;;;4968201;28;43496;-76
2023/03/08 07:20:17;;;;;;;2.53;2.53;;;16.60;60.40;;;;;;4990553;28;43514;-77
2023/03/08 07:22:45;;;;;;;2.60;2.60;;;16.60;60.50;;;;;;4989739;28;43756;-79
2023/03/08 07:25:13;;;;;;;2.30;2.30;;;16.60;60.60;;;;;;4970376;28;45037;-77
2023/03/08 07:27:41;;;;;;;2.40;2.40;;;16.50;60.70;;;;;;4972130;28;43806;-77
2023/03/08 07:30:15;;;;;;;2.40;2.40;;;16.50;60.60;;;;;;4972726;28;43506;-79
2023/03/08 07:32:43;;;;;;;2.63;2.63;;;16.50;60.70;;;;;;4971377;28;46143;-78
2023/03/08 07:35:12;;;;;;;2.70;2.60;;;16.50;60.70;;;;;;4971119;28;44714;-77
2023/03/08 07:37:40;;;;;;;2.30;2.30;;;16.50;60.70;;;;;;4990014;28;44058;-78
2023/03/08 07:40:10;;;;;;;2.30;2.30;;;16.50;60.80;;;;;;4972408;28;43549;-77
2023/03/08 07:42:38;;;;;;;2.50;2.40;;;16.50;60.80;;;;;;4971715;28;45901;-77
2023/03/08 07:45:19;;;;;;;2.30;2.30;;;16.50;61.00;;;;;;4969581;28;43532;-76
2023/03/08 07:47:50;;;;;;;2.37;2.37;;;16.50;60.90;;;;;;4989228;28;43442;-78
2023/03/08 07:50:18;;;;;;;2.70;2.60;;;16.60;60.60;;;;;;4989703;28;44070;-78
2023/03/08 07:52:46;;;;;;;2.33;2.33;;;16.70;60.30;;;;;;4989193;28;43692;-79
2023/03/08 07:55:15;;;;;;;2.40;2.40;;;16.70;60.30;;;;;;4988879;28;43884;-79
2023/03/08 07:57:43;;;;;;;2.50;2.50;;;16.70;60.40;;;;;;4971943;28;43421;-76
2023/03/08 08:00:12;;;;;;;2.40;2.40;;;16.60;60.40;;;;;;4989379;28;43500;-77
2023/03/08 08:02:41;;;;;;;2.30;2.30;;;16.60;60.60;;;;;;4988981;28;43998;-77
2023/03/08 08:05:09;;;;;;;2.10;2.10;;;16.60;60.50;;;;;;4971231;28;43454;-78
2023/03/08 08:07:37;;;;;;;2.20;2.20;;;16.60;60.60;;;;;;4975911;28;43387;-78
2023/03/08 08:10:07;;;;;;;2.40;2.40;;;16.60;60.60;;;;;;4995836;28;43561;-78
2023/03/08 08:12:35;;;;;;;2.47;2.40;;;16.60;60.60;;;;;;4984465;28;43763;-76
2023/03/08 08:15:03;;;;;;;2.20;2.20;;;16.50;60.60;;;;;;4984658;28;43409;-76
2023/03/08 08:17:31;;;;;;;2.20;2.20;;;16.50;60.80;;;;;;4967685;28;43446;-77
2023/03/08 08:20:00;;;;;;;2.27;2.27;;;16.50;60.90;;;;;;4972113;28;43540;-79
2023/03/08 08:22:28;;;;;;;2.30;2.30;;;16.60;60.70;;;;;;4988568;28;43578;-78
2023/03/08 08:24:56;;;;;;;2.43;2.33;;;16.60;60.50;;;;;;4989015;28;43452;-75
2023/03/08 08:27:24;;;;;;;2.00;2.00;;;16.60;60.50;;;;;;4987627;28;44291;-78
2023/03/08 08:29:52;;;;;;;2.03;2.03;;;16.60;60.50;;;;;;4989970;28;43415;-78
2023/03/08 08:32:20;;;;;;;2.10;2.10;;;16.60;60.60;;;;;;4988954;28;43968;-77
2023/03/08 08:34:49;;;;;;;2.20;2.20;;;16.50;60.70;;;;;;4988865;28;43501;-78
2023/03/08 08:37:18;;;;;;;2.10;2.10;;;16.60;60.60;;;;;;4971457;28;43425;-80
2023/03/08 08:39:46;;;;;;;2.00;2.00;;;16.50;60.60;;;;;;4988851;28;43440;-74
2023/03/08 08:42:14;;;;;;;2.30;2.30;;;16.50;60.70;;;;;;4970588;28;45309;-75
2023/03/08 08:44:44;;;;;;;2.20;2.20;;;16.50;60.70;;;;;;4991757;28;43557;-77
2023/03/08 08:47:12;;;;;;;1.97;1.97;;;16.50;60.80;;;;;;4996509;28;43445;-77
2023/03/08 08:49:41;;;;;;;2.00;2.00;;;16.50;60.80;;;;;;4992028;28;43621;-78
2023/03/08 08:52:09;;;;;;;2.00;2.00;;;16.50;61.10;;;;;;4970499;28;45363;-78
2023/03/08 08:54:39;;;;;;;2.00;2.00;;;16.60;60.90;;;;;;4988021;28;43456;-77
2023/03/08 08:57:07;;;;;;;1.93;1.93;;;16.60;60.50;;;;;;4988542;28;43352;-76
2023/03/08 08:59:36;;;;;;;1.93;1.93;;;16.60;60.30;;;;;;4971600;28;43685;-78
2023/03/08 09:02:05;;;;;;;2.10;2.00;;;16.60;60.40;;;;;;4973171;28;45736;-78
2023/03/08 09:04:33;;;;;;;1.90;1.90;;;16.60;60.50;;;;;;4972095;28;44603;-77
2023/03/08 09:07:03;;;;;;;1.90;1.90;;;16.60;60.50;;;;;;4970416;28;43430;-75
2023/03/08 09:09:31;;;;;;;2.00;2.00;;;16.60;60.70;;;;;;4991987;28;43388;-79
2023/03/08 09:12:00;;;;;;;1.93;1.93;;;16.60;60.60;;;;;;4990777;28;44929;-76
2023/03/08 09:14:29;;;;;;;1.87;1.87;;;16.60;60.60;;;;;;4987548;28;43475;-79
2023/03/08 09:16:56;;;;;;;1.70;1.70;;;16.60;60.70;;;;;;4986950;28;43480;-76
2023/03/08 09:19:25;;;;;;;1.97;1.97;;;16.50;60.70;;;;;;4971282;28;43639;-77
2023/03/08 09:21:53;;;;;;;1.83;1.83;;;16.50;60.80;;;;;;4969969;28;46085;-76
2023/03/08 09:24:21;;;;;;;2.00;2.00;;;16.50;60.90;;;;;;4987717;28;43429;-77
2023/03/08 09:26:49;;;;;;;1.97;1.97;;;16.50;61.00;;;;;;4970561;28;43469;-77
2023/03/08 09:29:18;;;;;;;1.87;1.87;;;16.60;60.80;;;;;;4971144;28;44010;-78
2023/03/08 09:31:46;;;;;;;1.90;1.90;;;16.60;60.50;;;;;;4987908;28;43888;-78
2023/03/08 09:34:15;;;;;;;1.87;1.87;;;16.60;60.40;;;;;;4987690;28;43435;-77
2023/03/08 09:36:43;;;;;;;1.60;1.60;;;16.60;60.50;;;;;;4987287;28;43450;-76
2023/03/08 09:39:12;;;;;;;1.80;1.80;;;16.60;60.60;;;;;;4970509;28;43626;-77
2023/03/08 09:41:51;;;;;;;1.83;1.83;;;16.60;60.80;;;;;;4969403;28;45715;-78
2023/03/08 09:44:42;;;;;;;1.80;1.80;;;16.60;60.70;;;;;;4969379;28;44808;-77
2023/03/08 09:47:13;;;;;;;2.00;2.00;;;16.60;60.70;;;;;;4970367;28;44120;-76
2023/03/08 09:49:42;;;;;;;1.83;1.83;;;16.50;60.70;;;;;;4988374;28;44188;-76
2023/03/08 09:52:12;;;;;;;1.57;1.57;;;16.50;60.80;;;;;;4969909;28;46133;-77
2023/03/08 09:54:41;;;;;;;1.53;1.53;;;16.50;60.80;;;;;;4987323;28;43947;-77
2023/03/08 09:57:13;;;;;;;1.70;1.70;;;16.50;60.90;;;;;;4987447;28;43367;-78
2023/03/08 09:59:45;;;;;;;1.80;1.80;;;16.50;61.00;;;;;;4987720;28;43499;-76
2023/03/08 10:02:20;;;;;;;1.70;1.70;;;16.60;60.80;;;;;;4987258;28;43839;-77
2023/03/08 10:04:52;;;;;;;1.60;1.60;;;16.60;60.50;;;;;;4987389;28;43452;-78
2023/03/08 10:07:45;;;;;;;1.90;1.90;;;16.60;60.40;;;;;;4984536;28;43436;-76
2023/03/08 10:10:38;;;;;;;1.60;1.60;;;16.60;60.60;;;;;;4971242;28;43504;-77
2023/03/08 10:13:19;;;;;;;1.40;1.40;;;16.60;60.60;;;;;;4971345;28;46027;-76
2023/03/08 10:15:50;;;;;;;1.47;1.47;;;16.50;60.70;;;;;;4964449;28;44485;-79
2023/03/08 10:18:25;;;;;;;1.40;1.40;;;16.60;60.70;;;;;;4965963;28;43358;-77
2023/03/08 10:20:53;;;;;;;1.43;1.43;;;16.50;60.80;;;;;;4987787;28;43551;-79
2023/03/08 10:23:22;;;;;;;1.50;1.50;;;16.50;60.80;;;;;;4986959;28;43931;-75
2023/03/08 10:25:50;;;;;;;1.77;1.77;;;16.50;60.80;;;;;;4987197;28;43451;-76
2023/03/08 10:28:19;;;;;;;1.20;1.20;;;16.50;60.90;;;;;;4987259;28;43377;-76
2023/03/08 10:30:50;;;;;;;1.40;1.40;;;16.50;61.10;;;;;;4973231;28;43902;-76
2023/03/08 10:33:20;;;;;;;1.57;1.57;;;16.50;61.10;;;;;;4967532;28;45976;-77
2023/03/08 10:35:54;;;;;;;1.40;1.40;;;16.60;60.90;;;;;;4986594;28;43503;-77
2023/03/08 10:38:23;;;;;;;1.40;1.40;;;16.70;60.50;;;;;;4969633;28;44004;-78
2023/03/08 10:40:59;;;;;;;1.50;1.50;;;16.70;60.30;;;;;;4987550;28;43500;-77
2023/03/08 10:43:29;;;;;;;1.40;1.40;;;16.70;60.50;;;;;;4986095;28;44043;-76
2023/03/08 10:46:00;;;;;;;1.60;1.60;;;16.60;60.50;;;;;;4986909;28;43856;-75
2023/03/08 10:48:28;;;;;;;1.50;1.50;;;16.60;60.60;;;;;;4969254;28;43869;-78
2023/03/08 10:51:00;;;;;;;1.50;1.50;;;16.60;60.60;;;;;;4988143;28;43501;-78
2023/03/08 10:53:29;;;;;;;1.37;1.37;;;16.60;60.60;;;;;;4985384;28;43617;-75
2023/03/08 10:55:58;;;;;;;1.43;1.43;;;16.60;60.70;;;;;;4990127;28;43467;-72
2023/03/08 10:58:33;;;;;;;1.20;1.20;;;16.60;60.80;;;;;;4990007;28;43391;-73
2023/03/08 11:01:04;;;;;;;1.43;1.43;;;16.50;60.80;;;;;;4990444;28;43426;-75
2023/03/08 11:03:32;;;;;;;1.50;1.50;;;16.50;60.80;;;;;;4990101;28;43783;-78
2023/03/08 11:06:01;;;;;;;1.43;1.43;;;16.50;60.80;;;;;;4989995;28;44161;-78
2023/03/08 11:08:31;;;;;;;1.60;1.60;;;16.50;60.80;;;;;;4971924;28;43426;-76
2023/03/08 11:11:03;;;;;;;1.30;1.30;;;16.50;60.90;;;;;;4979061;28;44451;-79
2023/03/08 11:13:32;;;;;;;1.30;1.30;;;16.50;61.00;;;;;;4971741;28;46030;-75
2023/03/08 11:16:11;;;;;;;1.50;1.50;;;16.50;61.00;;;;;;4972230;28;45320;-77
2023/03/08 11:19:00;;;;;;;1.40;1.40;;;16.50;61.10;;;;;;4989922;28;43696;-76
2023/03/08 11:21:33;;;;;;;1.27;1.27;;;16.50;61.20;;;;;;4968952;28;43590;-77
2023/03/08 11:24:18;;;;;;;1.30;1.30;;;16.60;61.00;;;;;;4989627;28;43618;-77
2023/03/08 11:26:51;;;;;;;1.20;1.20;;;16.70;60.60;;;;;;4989479;28;43390;-76
2023/03/08 11:29:25;;;;;;;1.27;1.27;;;16.70;60.40;;;;;;4987448;28;43362;-78
2023/03/08 11:31:58;;;;;;;1.30;1.30;;;16.70;60.40;;;;;;4972675;28;43453;-78
2023/03/08 11:34:57;;;;;;;1.30;1.30;;;16.70;60.60;;;;;;4989638;28;43890;-75
2023/03/08 11:37:30;;;;;;;1.40;1.40;;;16.60;60.60;;;;;;4986743;28;43386;-78
2023/03/08 11:40:04;;;;;;;1.30;1.30;;;16.60;60.60;;;;;;4989473;28;43402;-76
2023/03/08 11:42:40;;;;;;;1.30;1.30;;;16.60;60.60;;;;;;4972036;28;43490;-79
2023/03/08 11:45:21;;;;;;;1.30;1.30;;;16.60;60.80;;;;;;4989196;28;43849;-78
2023/03/08 11:48:09;;;;;;;1.30;1.30;;;16.60;60.90;;;;;;4984226;28;43369;-79
2023/03/08 11:50:41;;;;;;;1.30;1.30;;;16.60;60.90;;;;;;4986880;28;43433;-78
2023/03/08 11:53:16;;;;;;;1.30;1.30;;;16.50;61.00;;;;;;4972278;28;43899;-78
2023/03/08 11:56:20;;;;;;;1.20;1.20;;;16.50;60.80;;;;;;4972286;28;45822;-77
2023/03/08 11:58:50;;;;;;;1.13;1.13;;;16.50;60.90;;;;;;4947803;28;44902;-77
2023/03/08 12:01:19;;;;;;;1.17;1.17;;;16.50;60.90;;;;;;4989054;28;43342;-78
2023/03/08 12:03:51;;;;;;;1.10;1.10;;;16.50;61.00;;;;;;4989405;28;43449;-78
2023/03/08 12:06:23;;;;;;;1.10;1.10;;;16.50;61.00;;;;;;4988901;28;43875;-76
2023/03/08 12:08:58;;;;;;;1.30;1.30;;;16.50;61.10;;;;;;4973022;28;45030;-71
2023/03/08 12:11:31;;;;;;;1.10;1.10;;;16.50;61.10;;;;;;4991841;28;43394;-78
2023/03/08 12:14:03;;;;;;;1.10;1.10;;;16.60;60.90;;;;;;4983076;28;43434;-77
2023/03/08 12:16:35;;;;;;;1.40;1.40;;;16.70;60.50;;;;;;4966963;28;45705;-76
2023/03/08 12:19:10;;;;;;;1.23;1.23;;;16.70;60.30;;;;;;4986012;28;43413;-79
2023/03/08 12:21:41;;;;;;;1.20;1.20;;;16.70;60.40;;;;;;4988840;28;43390;-78
2023/03/08 12:24:18;;;;;;;1.17;1.17;;;16.70;60.60;;;;;;4989310;28;43386;-76
2023/03/08 12:26:48;;;;;;;1.10;1.10;;;16.60;60.60;;;;;;4988360;28;43703;-77
2023/03/08 12:29:18;;;;;;;1.10;1.10;;;16.60;60.60;;;;;;4988831;28;43423;-77
2023/03/08 12:31:49;;;;;;;1.20;1.20;;;16.60;60.70;;;;;;4988710;28;43429;-79
2023/03/08 12:34:27;;;;;;;1.13;1.13;;;16.60;60.80;;;;;;4971149;28;43545;-75
2023/03/08 12:36:55;;;;;;;1.20;1.20;;;16.60;60.90;;;;;;4970894;28;45786;-76
2023/03/08 12:39:26;;;;;;;1.20;1.20;;;16.50;60.80;;;;;;4988778;28;43493;-79
2023/03/08 12:41:59;;;;;;;1.17;1.17;;;16.50;60.90;;;;;;4988840;28;43412;-79
2023/03/08 12:44:28;;;;;;;1.10;1.10;;;16.50;61.00;;;;;;4983564;28;43421;-75
2023/03/08 12:46:59;;;;;;;1.20;1.20;;;16.50;61.00;;;;;;4971723;28;46346;-78
2023/03/08 12:49:33;;;;;;;1.10;1.10;;;16.50;61.00;;;;;;4988506;28;43420;-77
2023/03/08 12:52:03;;;;;;;1.20;1.20;;;16.50;61.10;;;;;;4967399;28;43370;-78
2023/03/08 12:54:33;;;;;;;1.10;1.10;;;16.50;61.10;;;;;;4968816;28;43553;-77
2023/03/08 12:57:02;;;;;;;1.27;1.10;;;16.50;61.10;;;;;;4968340;28;44001;-77
2023/03/08 12:59:34;;;;;;;1.00;1.00;;;16.50;61.20;;;;;;4968272;28;43505;-77
2023/03/08 13:02:17;;;;;;;1.30;1.30;;;16.50;62.00;;;;;;4967048;28;44034;-78
2023/03/08 13:04:46;;;;;;;1.00;1.00;;;16.60;61.00;;;;;;4968804;28;43497;-78